createdAt,value
2018-05-24T00:00:35.691Z,818.44
2018-05-24T00:01:35.704Z,818.49
2018-05-24T00:02:35.718Z,818.48
2018-05-24T00:03:35.735Z,818.42
2018-05-24T00:04:35.746Z,818.45
2018-05-24T00:05:35.759Z,818.44
2018-05-24T00:06:35.769Z,818.44
2018-05-24T00:07:35.783Z,818.42
2018-05-24T00:08:35.796Z,818.40
2018-05-24T00:09:35.810Z,818.38
2018-05-24T00:10:35.835Z,818.40
2018-05-24T00:11:35.834Z,818.39
2018-05-24T00:12:35.849Z,818.36
2018-05-24T00:13:35.860Z,818.40
2018-05-24T00:14:35.875Z,818.41
2018-05-24T00:15:35.889Z,818.39
2018-05-24T00:16:35.900Z,818.38
2018-05-24T00:17:35.914Z,818.39
2018-05-24T00:18:35.928Z,818.37
2018-05-24T00:19:35.942Z,818.40
2018-05-24T00:20:35.954Z,818.39
2018-05-24T00:21:35.967Z,818.42
2018-05-24T00:22:35.981Z,818.44
2018-05-24T00:23:35.994Z,818.40
2018-05-24T00:24:36.005Z,818.42
2018-05-24T00:25:36.018Z,818.42
2018-05-24T00:26:36.032Z,818.41
2018-05-24T00:27:36.046Z,818.41
2018-05-24T00:28:36.059Z,818.39
2018-05-24T00:29:36.078Z,818.40
2018-05-24T00:30:36.088Z,818.40
2018-05-24T00:31:36.097Z,818.43
2018-05-24T00:32:36.109Z,818.39
2018-05-24T00:33:36.125Z,818.42
2018-05-24T00:34:36.136Z,818.43
2018-05-24T00:35:36.150Z,818.47
2018-05-24T00:36:36.161Z,818.45
2018-05-24T00:37:36.174Z,818.45
2018-05-24T00:38:36.189Z,818.45
2018-05-24T00:39:36.205Z,818.47
2018-05-24T00:40:36.214Z,818.51
2018-05-24T00:41:36.228Z,818.50
2018-05-24T00:42:36.240Z,818.50
2018-05-24T00:43:36.253Z,818.51
2018-05-24T00:44:36.268Z,818.50
2018-05-24T00:45:36.280Z,818.52
2018-05-24T00:46:36.293Z,818.52
2018-05-24T00:47:36.306Z,818.49
2018-05-24T00:48:36.319Z,818.49
2018-05-24T00:49:36.331Z,818.49
2018-05-24T00:50:36.347Z,818.49
2018-05-24T00:51:36.366Z,818.50
2018-05-24T00:52:36.371Z,818.50
2018-05-24T00:53:36.383Z,818.47
2018-05-24T00:54:36.442Z,818.51
2018-05-24T00:55:36.411Z,818.49
2018-05-24T00:56:36.425Z,818.51
2018-05-24T00:57:36.436Z,818.49
2018-05-24T00:58:36.452Z,818.45
2018-05-24T00:59:36.465Z,818.49
2018-05-24T01:00:36.476Z,818.50
2018-05-24T01:01:36.488Z,818.47
2018-05-24T01:02:36.502Z,818.54
2018-05-24T01:03:36.514Z,818.51
2018-05-24T01:04:36.529Z,818.49
2018-05-24T01:05:36.542Z,818.52
2018-05-24T01:06:36.555Z,818.52
2018-05-24T01:07:36.568Z,818.51
2018-05-24T01:08:36.580Z,818.49
2018-05-24T01:09:36.597Z,818.54
2018-05-24T01:10:36.605Z,818.54
2018-05-24T01:11:36.618Z,818.57
2018-05-24T01:12:36.630Z,818.58
2018-05-24T01:13:36.645Z,818.57
2018-05-24T01:14:36.657Z,818.60
2018-05-24T01:15:36.671Z,818.59
2018-05-24T01:16:36.682Z,818.60
2018-05-24T01:17:36.695Z,818.59
2018-05-24T01:18:36.708Z,818.60
2018-05-24T01:19:36.723Z,818.61
2018-05-24T01:20:36.734Z,818.62
2018-05-24T01:21:36.747Z,818.64
2018-05-24T01:22:36.761Z,818.64
2018-05-24T01:23:36.774Z,818.66
2018-05-24T01:24:36.785Z,818.67
2018-05-24T01:25:36.800Z,818.65
2018-05-24T01:26:36.811Z,818.65
2018-05-24T01:27:36.824Z,818.65
2018-05-24T01:28:36.837Z,818.65
2018-05-24T01:29:36.851Z,818.62
2018-05-24T01:30:36.864Z,818.65
2018-05-24T01:31:36.879Z,818.64
2018-05-24T01:32:36.888Z,818.64
2018-05-24T01:33:36.901Z,818.66
2018-05-24T01:34:36.916Z,818.66
2018-05-24T01:35:36.931Z,818.66
2018-05-24T01:36:36.942Z,818.64
2018-05-24T01:37:36.958Z,818.65
2018-05-24T01:38:36.967Z,818.65
2018-05-24T01:39:36.981Z,818.62
2018-05-24T01:40:36.993Z,818.65
2018-05-24T01:41:37.006Z,818.64
2018-05-24T01:42:37.018Z,818.63
2018-05-24T01:43:37.033Z,818.65
2018-05-24T01:44:37.045Z,818.62
2018-05-24T01:45:37.057Z,818.63
2018-05-24T01:46:37.070Z,818.67
2018-05-24T01:47:37.083Z,818.65
2018-05-24T01:48:37.094Z,818.68
2018-05-24T01:49:37.107Z,818.64
2018-05-24T01:50:37.122Z,818.68
2018-05-24T01:51:37.133Z,818.66
2018-05-24T01:52:37.146Z,818.65
2018-05-24T01:53:37.160Z,818.62
2018-05-24T01:54:37.173Z,818.65
2018-05-24T01:55:37.185Z,818.69
2018-05-24T01:56:37.198Z,818.61
2018-05-24T01:57:37.213Z,818.63
2018-05-24T01:58:37.223Z,818.67
2018-05-24T01:59:37.237Z,818.63
2018-05-24T02:00:37.247Z,818.63
2018-05-24T02:01:37.267Z,818.64
2018-05-24T02:02:37.275Z,818.64
2018-05-24T02:03:37.286Z,818.64
2018-05-24T02:04:37.300Z,818.56
2018-05-24T02:05:37.312Z,818.63
2018-05-24T02:06:37.326Z,818.62
2018-05-24T02:07:37.340Z,818.58
2018-05-24T02:08:37.351Z,818.64
2018-05-24T02:09:37.364Z,818.62
2018-05-24T02:10:37.375Z,818.60
2018-05-24T02:11:37.390Z,818.60
2018-05-24T02:12:37.402Z,818.60
2018-05-24T02:13:37.414Z,818.59
2018-05-24T02:14:37.427Z,818.60
2018-05-24T02:15:37.440Z,818.63
2018-05-24T02:16:37.452Z,818.56
2018-05-24T02:17:37.465Z,818.55
2018-05-24T02:18:37.477Z,818.58
2018-05-24T02:19:37.491Z,818.58
2018-05-24T02:20:37.502Z,818.58
2018-05-24T02:21:37.516Z,818.57
2018-05-24T02:22:37.528Z,818.55
2018-05-24T02:23:37.540Z,818.60
2018-05-24T02:24:37.553Z,818.59
2018-05-24T02:25:37.566Z,818.57
2018-05-24T02:26:37.579Z,818.55
2018-05-24T02:27:37.592Z,818.57
2018-05-24T02:28:37.605Z,818.57
2018-05-24T02:29:37.617Z,818.59
2018-05-24T02:30:37.630Z,818.58
2018-05-24T02:31:37.651Z,818.57
2018-05-24T02:32:37.654Z,818.53
2018-05-24T02:33:37.670Z,818.56
2018-05-24T02:34:37.679Z,818.54
2018-05-24T02:35:37.695Z,818.55
2018-05-24T02:36:37.709Z,818.55
2018-05-24T02:37:37.718Z,818.50
2018-05-24T02:38:37.731Z,818.55
2018-05-24T02:39:37.743Z,818.54
2018-05-24T02:40:37.756Z,818.51
2018-05-24T02:41:37.769Z,818.54
2018-05-24T02:42:37.780Z,818.52
2018-05-24T02:43:37.797Z,818.53
2018-05-24T02:44:37.805Z,818.54
2018-05-24T02:45:37.817Z,818.56
2018-05-24T02:46:37.832Z,818.56
2018-05-24T02:47:37.844Z,818.54
2018-05-24T02:48:37.855Z,818.53
2018-05-24T02:49:37.869Z,818.52
2018-05-24T02:50:37.882Z,818.52
2018-05-24T02:51:37.894Z,818.52
2018-05-24T02:52:37.905Z,818.52
2018-05-24T02:53:37.917Z,818.49
2018-05-24T02:54:37.930Z,818.49
2018-05-24T02:55:37.942Z,818.48
2018-05-24T02:56:37.954Z,818.48
2018-05-24T02:57:37.968Z,818.47
2018-05-24T02:58:37.980Z,818.48
2018-05-24T02:59:37.998Z,818.49
2018-05-24T03:00:38.008Z,818.45
2018-05-24T03:01:38.086Z,818.45
2018-05-24T03:02:38.030Z,818.44
2018-05-24T03:03:38.042Z,818.44
2018-05-24T03:04:38.054Z,818.40
2018-05-24T03:05:38.069Z,818.43
2018-05-24T03:06:38.081Z,818.43
2018-05-24T03:07:38.097Z,818.43
2018-05-24T03:08:38.106Z,818.42
2018-05-24T03:09:38.118Z,818.42
2018-05-24T03:10:38.131Z,818.46
2018-05-24T03:11:38.143Z,818.42
2018-05-24T03:12:38.156Z,818.46
2018-05-24T03:13:38.178Z,818.46
2018-05-24T03:14:38.182Z,818.45
2018-05-24T03:15:38.193Z,818.44
2018-05-24T03:16:38.207Z,818.43
2018-05-24T03:17:38.218Z,818.38
2018-05-24T03:18:38.232Z,818.41
2018-05-24T03:19:38.242Z,818.43
2018-05-24T03:20:38.254Z,818.40
2018-05-24T03:21:38.268Z,818.40
2018-05-24T03:22:38.280Z,818.38
2018-05-24T03:23:38.295Z,818.43
2018-05-24T03:24:38.304Z,818.39
2018-05-24T03:25:38.319Z,818.42
2018-05-24T03:26:38.329Z,818.40
2018-05-24T03:27:38.342Z,818.40
2018-05-24T03:28:38.359Z,818.40
2018-05-24T03:29:38.368Z,818.37
2018-05-24T03:30:38.387Z,818.37
2018-05-24T03:31:38.397Z,818.37
2018-05-24T03:32:38.406Z,818.35
2018-05-24T03:33:38.417Z,818.34
2018-05-24T03:34:38.432Z,818.35
2018-05-24T03:35:38.444Z,818.34
2018-05-24T03:36:38.456Z,818.32
2018-05-24T03:37:38.469Z,818.34
2018-05-24T03:38:38.480Z,818.33
2018-05-24T03:39:38.494Z,818.30
2018-05-24T03:40:38.504Z,818.31
2018-05-24T03:41:38.516Z,818.36
2018-05-24T03:42:38.530Z,818.33
2018-05-24T03:43:38.541Z,818.30
2018-05-24T03:44:38.555Z,818.30
2018-05-24T03:45:38.566Z,818.33
2018-05-24T03:46:38.580Z,818.31
2018-05-24T03:47:38.591Z,818.33
2018-05-24T03:48:38.603Z,818.30
2018-05-24T03:49:38.615Z,818.32
2018-05-24T03:50:38.629Z,818.32
2018-05-24T03:51:38.641Z,818.26
2018-05-24T03:52:38.653Z,818.33
2018-05-24T03:53:38.664Z,818.33
2018-05-24T03:54:38.677Z,818.34
2018-05-24T03:55:38.690Z,818.34
2018-05-24T03:56:38.701Z,818.38
2018-05-24T03:57:38.750Z,818.34
2018-05-24T03:58:38.727Z,818.37
2018-05-24T03:59:38.738Z,818.34
2018-05-24T04:00:38.751Z,818.33
2018-05-24T04:01:38.765Z,818.35
2018-05-24T04:02:38.776Z,818.35
2018-05-24T04:03:38.788Z,818.37
2018-05-24T04:04:38.800Z,818.36
2018-05-24T04:05:38.899Z,818.34
2018-05-24T04:06:38.824Z,818.36
2018-05-24T04:07:38.840Z,818.33
2018-05-24T04:08:38.853Z,818.33
2018-05-24T04:09:38.862Z,818.33
2018-05-24T04:10:38.875Z,818.32
2018-05-24T04:11:38.889Z,818.33
2018-05-24T04:12:38.900Z,818.31
2018-05-24T04:13:38.918Z,818.31
2018-05-24T04:14:38.924Z,818.30
2018-05-24T04:15:38.938Z,818.29
2018-05-24T04:16:38.948Z,818.27
2018-05-24T04:17:38.962Z,818.28
2018-05-24T04:18:38.976Z,818.29
2018-05-24T04:19:38.986Z,818.29
2018-05-24T04:20:39.072Z,818.27
2018-05-24T04:21:39.011Z,818.27
2018-05-24T04:22:39.024Z,818.27
2018-05-24T04:23:39.034Z,818.28
2018-05-24T04:24:39.048Z,818.28
2018-05-24T04:25:39.061Z,818.27
2018-05-24T04:26:39.072Z,818.30
2018-05-24T04:27:39.085Z,818.26
2018-05-24T04:28:39.098Z,818.26
2018-05-24T04:29:39.107Z,818.23
2018-05-24T04:30:39.120Z,818.24
2018-05-24T04:31:39.136Z,818.22
2018-05-24T04:32:39.151Z,818.21
2018-05-24T04:33:39.159Z,818.22
2018-05-24T04:34:39.170Z,818.21
2018-05-24T04:35:39.182Z,818.24
2018-05-24T04:36:39.194Z,818.24
2018-05-24T04:37:39.207Z,818.26
2018-05-24T04:38:39.220Z,818.26
2018-05-24T04:39:39.234Z,818.23
2018-05-24T04:40:39.248Z,818.25
2018-05-24T04:41:39.256Z,818.27
2018-05-24T04:42:39.270Z,818.22
2018-05-24T04:43:39.282Z,818.26
2018-05-24T04:44:39.297Z,818.26
2018-05-24T04:45:39.304Z,818.26
2018-05-24T04:46:39.316Z,818.28
2018-05-24T04:47:39.331Z,818.30
2018-05-24T04:48:39.343Z,818.29
2018-05-24T04:49:39.356Z,818.32
2018-05-24T04:50:39.368Z,818.30
2018-05-24T04:51:39.383Z,818.30
2018-05-24T04:52:39.391Z,818.34
2018-05-24T04:53:39.405Z,818.33
2018-05-24T04:54:39.416Z,818.33
2018-05-24T04:55:39.430Z,818.34
2018-05-24T04:56:39.443Z,818.36
2018-05-24T04:57:39.456Z,818.39
2018-05-24T04:58:39.467Z,818.39
2018-05-24T04:59:39.481Z,818.41
2018-05-24T05:00:39.492Z,818.37
2018-05-24T05:01:39.545Z,818.35
2018-05-24T05:02:39.518Z,818.37
2018-05-24T05:03:39.530Z,818.41
2018-05-24T05:04:39.543Z,818.40
2018-05-24T05:05:39.560Z,818.37
2018-05-24T05:06:39.568Z,818.39
2018-05-24T05:07:39.582Z,818.40
2018-05-24T05:08:39.593Z,818.39
2018-05-24T05:09:39.607Z,818.39
2018-05-24T05:10:39.618Z,818.38
2018-05-24T05:11:39.634Z,818.43
2018-05-24T05:12:39.647Z,818.38
2018-05-24T05:13:39.658Z,818.41
2018-05-24T05:14:39.702Z,818.42
2018-05-24T05:15:39.682Z,818.44
2018-05-24T05:16:39.697Z,818.42
2018-05-24T05:17:39.707Z,818.42
2018-05-24T05:18:39.722Z,818.41
2018-05-24T05:19:39.908Z,818.42
2018-05-24T05:20:39.744Z,818.42
2018-05-24T05:21:39.757Z,818.37
2018-05-24T05:22:39.774Z,818.39
2018-05-24T05:23:39.783Z,818.39
2018-05-24T05:24:39.795Z,818.42
2018-05-24T05:25:39.809Z,818.39
2018-05-24T05:26:39.819Z,818.41
2018-05-24T05:27:39.833Z,818.39
2018-05-24T05:28:39.846Z,818.39
2018-05-24T05:29:39.901Z,818.44
2018-05-24T05:30:39.922Z,818.41
2018-05-24T05:31:39.883Z,818.43
2018-05-24T05:32:39.896Z,818.42
2018-05-24T05:33:39.909Z,818.41
2018-05-24T05:34:39.922Z,818.41
2018-05-24T05:35:39.933Z,818.41
2018-05-24T05:36:39.946Z,818.42
2018-05-24T05:37:39.963Z,818.45
2018-05-24T05:38:39.975Z,818.44
2018-05-24T05:39:39.985Z,818.39
2018-05-24T05:40:40.001Z,818.39
2018-05-24T05:41:40.015Z,818.41
2018-05-24T05:42:40.023Z,818.43
2018-05-24T05:43:40.038Z,818.43
2018-05-24T05:44:40.052Z,818.41
2018-05-24T05:45:40.061Z,818.42
2018-05-24T05:46:40.076Z,818.40
2018-05-24T05:47:40.086Z,818.38
2018-05-24T05:48:40.099Z,818.44
2018-05-24T05:49:40.115Z,818.43
2018-05-24T05:50:40.126Z,818.49
2018-05-24T05:51:40.142Z,818.46
2018-05-24T05:52:40.152Z,818.41
2018-05-24T05:53:40.164Z,818.42
2018-05-24T05:54:40.178Z,818.47
2018-05-24T05:55:40.191Z,818.46
2018-05-24T05:56:40.204Z,818.48
2018-05-24T05:57:40.224Z,818.42
2018-05-24T05:58:40.235Z,818.45
2018-05-24T05:59:40.242Z,818.42
2018-05-24T06:00:40.254Z,818.41
2018-05-24T06:01:40.288Z,818.41
2018-05-24T06:02:40.282Z,818.42
2018-05-24T06:03:40.294Z,818.38
2018-05-24T06:04:40.305Z,818.38
2018-05-24T06:05:40.324Z,818.43
2018-05-24T06:06:40.338Z,818.44
2018-05-24T06:07:40.348Z,818.44
2018-05-24T06:08:40.358Z,818.45
2018-05-24T06:09:40.423Z,818.51
2018-05-24T06:10:40.385Z,818.48
2018-05-24T06:11:40.398Z,818.48
2018-05-24T06:12:40.410Z,818.50
2018-05-24T06:13:40.424Z,818.48
2018-05-24T06:14:40.436Z,818.49
2018-05-24T06:15:40.454Z,818.50
2018-05-24T06:16:40.462Z,818.54
2018-05-24T06:17:40.474Z,818.50
2018-05-24T06:18:40.490Z,818.56
2018-05-24T06:19:40.502Z,818.55
2018-05-24T06:20:40.515Z,818.55
2018-05-24T06:21:40.661Z,818.55
2018-05-24T06:22:40.541Z,818.57
2018-05-24T06:23:40.555Z,818.57
2018-05-24T06:24:40.566Z,818.56
2018-05-24T06:25:40.581Z,818.60
2018-05-24T06:26:40.595Z,818.58
2018-05-24T06:27:40.608Z,818.57
2018-05-24T06:28:40.620Z,818.62
2018-05-24T06:29:40.634Z,818.59
2018-05-24T06:30:40.647Z,818.60
2018-05-24T06:31:40.660Z,818.59
2018-05-24T06:32:40.673Z,818.60
2018-05-24T06:33:40.685Z,818.62
2018-05-24T06:34:40.701Z,818.59
2018-05-24T06:35:40.714Z,818.61
2018-05-24T06:36:40.724Z,818.61
2018-05-24T06:37:40.742Z,818.59
2018-05-24T06:38:40.762Z,818.64
2018-05-24T06:39:40.766Z,818.63
2018-05-24T06:40:40.778Z,818.64
2018-05-24T06:41:40.792Z,818.66
2018-05-24T06:42:40.810Z,818.63
2018-05-24T06:43:40.819Z,818.62
2018-05-24T06:44:40.831Z,818.61
2018-05-24T06:45:40.844Z,818.63
2018-05-24T06:46:40.858Z,818.61
2018-05-24T06:47:40.873Z,818.63
2018-05-24T06:48:40.885Z,818.61
2018-05-24T06:49:40.897Z,818.63
2018-05-24T06:50:40.913Z,818.66
2018-05-24T06:51:40.924Z,818.61
2018-05-24T06:52:40.936Z,818.63
2018-05-24T06:53:41.025Z,818.67
2018-05-24T06:54:41.030Z,818.66
2018-05-24T06:55:40.976Z,818.68
2018-05-24T06:56:40.990Z,818.71
2018-05-24T06:57:41.002Z,818.71
2018-05-24T06:58:41.016Z,818.72
2018-05-24T06:59:41.028Z,818.71
2018-05-24T07:00:41.042Z,818.69
2018-05-24T07:01:41.054Z,818.75
2018-05-24T07:02:41.069Z,818.73
2018-05-24T07:03:41.081Z,818.71
2018-05-24T07:04:41.094Z,818.76
2018-05-24T07:05:41.105Z,818.78
2018-05-24T07:06:41.120Z,818.73
2018-05-24T07:07:41.135Z,818.73
2018-05-24T07:08:41.150Z,818.71
2018-05-24T07:09:41.161Z,818.75
2018-05-24T07:10:41.173Z,818.75
2018-05-24T07:11:41.186Z,818.76
2018-05-24T07:12:41.198Z,818.75
2018-05-24T07:13:41.212Z,818.78
2018-05-24T07:14:41.224Z,818.78
2018-05-24T07:15:41.247Z,818.83
2018-05-24T07:16:41.250Z,818.83
2018-05-24T07:17:41.264Z,818.82
2018-05-24T07:18:41.405Z,818.79
2018-05-24T07:19:41.291Z,818.78
2018-05-24T07:20:41.302Z,818.79
2018-05-24T07:21:41.317Z,818.81
2018-05-24T07:22:41.329Z,818.77
2018-05-24T07:23:41.344Z,818.79
2018-05-24T07:24:41.370Z,818.79
2018-05-24T07:25:41.371Z,818.80
2018-05-24T07:26:41.384Z,818.73
2018-05-24T07:27:41.399Z,818.75
2018-05-24T07:28:41.410Z,818.77
2018-05-24T07:29:41.423Z,818.78
2018-05-24T07:30:41.436Z,818.72
2018-05-24T07:31:41.450Z,818.78
2018-05-24T07:32:41.463Z,818.76
2018-05-24T07:33:41.474Z,818.80
2018-05-24T07:34:41.489Z,818.76
2018-05-24T07:35:41.503Z,818.77
2018-05-24T07:36:41.514Z,818.77
2018-05-24T07:37:41.540Z,818.75
2018-05-24T07:38:41.546Z,818.77
2018-05-24T07:39:41.569Z,818.77
2018-05-24T07:40:41.568Z,818.82
2018-05-24T07:41:41.581Z,818.81
2018-05-24T07:42:41.593Z,818.79
2018-05-24T07:43:41.608Z,818.80
2018-05-24T07:44:41.624Z,818.74
2018-05-24T07:45:41.636Z,818.82
2018-05-24T07:46:41.651Z,818.82
2018-05-24T07:47:41.662Z,818.80
2018-05-24T07:48:41.678Z,818.83
2018-05-24T07:49:41.690Z,818.85
2018-05-24T07:50:41.703Z,818.86
2018-05-24T07:51:41.717Z,818.85
2018-05-24T07:52:41.729Z,818.80
2018-05-24T07:53:41.749Z,818.86
2018-05-24T07:54:41.782Z,818.85
2018-05-24T07:55:41.769Z,818.85
2018-05-24T07:56:41.786Z,818.81
2018-05-24T07:57:41.796Z,818.81
2018-05-24T07:58:41.812Z,818.78
2018-05-24T07:59:41.834Z,818.83
2018-05-24T08:00:41.840Z,818.82
2018-05-24T08:01:41.876Z,818.83
2018-05-24T08:02:41.867Z,818.82
2018-05-24T08:03:41.879Z,818.81
2018-05-24T08:04:41.898Z,818.76
2018-05-24T08:05:41.909Z,818.83
2018-05-24T08:06:41.921Z,818.76
2018-05-24T08:07:41.935Z,818.75
2018-05-24T08:08:41.984Z,818.76
2018-05-24T08:09:41.963Z,818.80
2018-05-24T08:10:41.979Z,818.79
2018-05-24T08:11:41.990Z,818.74
2018-05-24T08:12:42.004Z,818.76
2018-05-24T08:13:42.020Z,818.83
2018-05-24T08:14:42.134Z,818.78
2018-05-24T08:15:42.055Z,818.79
2018-05-24T08:16:42.058Z,818.86
2018-05-24T08:17:42.074Z,818.84
2018-05-24T08:18:42.092Z,818.86
2018-05-24T08:19:42.102Z,818.87
2018-05-24T08:20:42.114Z,818.84
2018-05-24T08:21:42.133Z,818.81
2018-05-24T08:22:42.143Z,818.85
2018-05-24T08:23:42.157Z,818.84
2018-05-24T08:24:42.218Z,818.83
2018-05-24T08:25:42.184Z,818.80
2018-05-24T08:26:42.212Z,818.81
2018-05-24T08:27:42.212Z,818.79
2018-05-24T08:28:42.226Z,818.80
2018-05-24T08:29:42.241Z,818.78
2018-05-24T08:30:42.255Z,818.76
2018-05-24T08:31:42.270Z,818.75
2018-05-24T08:32:42.285Z,818.77
2018-05-24T08:33:42.296Z,818.74
2018-05-24T08:34:42.312Z,818.70
2018-05-24T08:35:42.365Z,818.75
2018-05-24T08:36:42.344Z,818.76
2018-05-24T08:37:42.357Z,818.71
2018-05-24T08:38:42.367Z,818.72
2018-05-24T08:39:42.381Z,818.71
2018-05-24T08:40:42.466Z,818.70
2018-05-24T08:41:42.447Z,818.72
2018-05-24T08:42:42.428Z,818.72
2018-05-24T08:43:42.440Z,818.71
2018-05-24T08:44:42.453Z,818.75
2018-05-24T08:45:42.465Z,818.75
2018-05-24T08:46:42.481Z,818.77
2018-05-24T08:47:42.492Z,818.75
2018-05-24T08:48:42.508Z,818.78
2018-05-24T08:49:42.523Z,818.78
2018-05-24T08:50:42.538Z,818.78
2018-05-24T08:51:42.551Z,818.81
2018-05-24T08:52:42.565Z,818.79
2018-05-24T08:53:42.577Z,818.82
2018-05-24T08:54:42.593Z,818.82
2018-05-24T08:55:42.607Z,818.83
2018-05-24T08:56:42.620Z,818.83
2018-05-24T08:57:42.634Z,818.84
2018-05-24T08:58:42.651Z,818.83
2018-05-24T08:59:42.664Z,818.83
2018-05-24T09:00:42.677Z,818.89
2018-05-24T09:01:42.695Z,818.86
2018-05-24T09:02:42.705Z,818.82
2018-05-24T09:03:42.722Z,818.83
2018-05-24T09:04:42.735Z,818.87
2018-05-24T09:05:42.749Z,818.86
2018-05-24T09:06:42.763Z,818.85
2018-05-24T09:07:42.782Z,818.87
2018-05-24T09:08:42.792Z,818.90
2018-05-24T09:09:42.806Z,818.85
2018-05-24T09:10:42.821Z,818.85
2018-05-24T09:11:42.835Z,818.91
2018-05-24T09:12:42.847Z,818.89
2018-05-24T09:13:42.868Z,818.85
2018-05-24T09:14:42.879Z,818.89
2018-05-24T09:15:42.892Z,818.90
2018-05-24T09:16:42.907Z,818.92
2018-05-24T09:17:42.920Z,818.88
2018-05-24T09:18:42.934Z,818.89
2018-05-24T09:19:42.948Z,818.85
2018-05-24T09:20:42.963Z,818.83
2018-05-24T09:21:42.985Z,818.88
2018-05-24T09:22:42.997Z,818.81
2018-05-24T09:23:43.009Z,818.83
2018-05-24T09:24:43.021Z,818.83
2018-05-24T09:25:43.036Z,818.89
2018-05-24T09:26:43.049Z,818.84
2018-05-24T09:27:43.066Z,818.83
2018-05-24T09:28:43.079Z,818.85
2018-05-24T09:29:43.095Z,818.87
2018-05-24T09:30:43.110Z,818.82
2018-05-24T09:31:43.124Z,818.82
2018-05-24T09:32:43.141Z,818.82
2018-05-24T09:33:43.153Z,818.83
2018-05-24T09:34:43.168Z,818.81
2018-05-24T09:35:43.183Z,818.83
2018-05-24T09:36:43.197Z,818.85
2018-05-24T09:37:43.214Z,818.85
2018-05-24T09:38:43.228Z,818.87
2018-05-24T09:39:43.244Z,818.85
2018-05-24T09:40:43.258Z,818.88
2018-05-24T09:41:43.273Z,818.84
2018-05-24T09:42:43.287Z,818.83
2018-05-24T09:43:43.307Z,818.82
2018-05-24T09:44:43.320Z,818.86
2018-05-24T09:45:43.334Z,818.87
2018-05-24T09:46:43.349Z,818.89
2018-05-24T09:47:43.414Z,818.86
2018-05-24T09:48:43.378Z,818.91
2018-05-24T09:49:43.397Z,818.89
2018-05-24T09:50:43.410Z,818.91
2018-05-24T09:51:43.427Z,818.88
2018-05-24T09:52:43.441Z,818.85
2018-05-24T09:53:43.459Z,818.92
2018-05-24T09:54:43.474Z,818.90
2018-05-24T09:55:43.488Z,818.88
2018-05-24T09:56:43.503Z,818.88
2018-05-24T09:57:43.517Z,818.87
2018-05-24T09:58:43.539Z,818.87
2018-05-24T09:59:43.560Z,818.88
2018-05-24T10:00:43.564Z,818.94
2018-05-24T10:01:43.582Z,818.94
2018-05-24T10:02:43.599Z,818.93
2018-05-24T10:03:43.613Z,818.91
2018-05-24T10:04:43.649Z,818.96
2018-05-24T10:05:43.644Z,818.95
2018-05-24T10:06:43.660Z,818.92
2018-05-24T10:07:43.677Z,818.94
2018-05-24T10:08:43.692Z,818.90
2018-05-24T10:09:43.708Z,818.92
2018-05-24T10:10:43.725Z,818.91
2018-05-24T10:11:43.739Z,818.87
2018-05-24T10:12:43.757Z,818.88
2018-05-24T10:13:43.769Z,818.90
2018-05-24T10:14:43.786Z,818.89
2018-05-24T10:15:43.801Z,818.91
2018-05-24T10:16:43.816Z,818.93
2018-05-24T10:17:43.832Z,818.90
2018-05-24T10:18:43.847Z,818.94
2018-05-24T10:19:43.863Z,818.90
2018-05-24T10:20:43.876Z,818.88
2018-05-24T10:21:43.894Z,818.91
2018-05-24T10:22:43.911Z,818.91
2018-05-24T10:23:43.924Z,818.89
2018-05-24T10:24:43.940Z,818.88
2018-05-24T10:25:43.958Z,818.82
2018-05-24T10:26:43.975Z,818.84
2018-05-24T10:27:43.986Z,818.81
2018-05-24T10:28:44.002Z,818.84
2018-05-24T10:29:44.019Z,818.85
2018-05-24T10:30:44.035Z,818.89
2018-05-24T10:31:44.051Z,818.83
2018-05-24T10:32:44.065Z,818.82
2018-05-24T10:33:44.082Z,818.83
2018-05-24T10:34:44.100Z,818.81
2018-05-24T10:35:44.116Z,818.83
2018-05-24T10:36:44.130Z,818.82
2018-05-24T10:37:44.146Z,818.79
2018-05-24T10:38:44.161Z,818.79
2018-05-24T10:39:44.180Z,818.76
2018-05-24T10:40:44.192Z,818.81
2018-05-24T10:41:44.213Z,818.74
2018-05-24T10:42:44.226Z,818.73
2018-05-24T10:43:44.240Z,818.72
2018-05-24T10:44:44.256Z,818.71
2018-05-24T10:45:44.273Z,818.72
2018-05-24T10:46:44.287Z,818.70
2018-05-24T10:47:44.305Z,818.73
2018-05-24T10:48:44.322Z,818.65
2018-05-24T10:49:44.336Z,818.65
2018-05-24T10:50:44.351Z,818.68
2018-05-24T10:51:44.368Z,818.62
2018-05-24T10:52:44.383Z,818.63
2018-05-24T10:53:44.400Z,818.64
2018-05-24T10:54:44.413Z,818.63
2018-05-24T10:55:44.436Z,818.67
2018-05-24T10:56:44.451Z,818.62
2018-05-24T10:57:44.464Z,818.60
2018-05-24T10:58:44.479Z,818.65
2018-05-24T10:59:44.573Z,818.64
2018-05-24T11:00:44.516Z,818.67
2018-05-24T11:01:44.524Z,818.66
2018-05-24T11:02:44.542Z,818.63
2018-05-24T11:03:44.558Z,818.59
2018-05-24T11:04:44.574Z,818.60
2018-05-24T11:05:44.591Z,818.59
2018-05-24T11:06:44.605Z,818.58
2018-05-24T11:07:44.624Z,818.61
2018-05-24T11:08:44.641Z,818.62
2018-05-24T11:09:44.653Z,818.60
2018-05-24T11:10:44.673Z,818.63
2018-05-24T11:11:44.779Z,818.64
2018-05-24T11:12:44.701Z,818.65
2018-05-24T11:13:44.716Z,818.65
2018-05-24T11:14:44.734Z,818.66
2018-05-24T11:15:44.749Z,818.67
2018-05-24T11:16:44.766Z,818.73
2018-05-24T11:17:44.784Z,818.68
2018-05-24T11:18:44.798Z,818.71
2018-05-24T11:19:44.814Z,818.67
2018-05-24T11:20:44.833Z,818.57
2018-05-24T11:21:44.846Z,818.61
2018-05-24T11:22:44.864Z,818.61
2018-05-24T11:23:44.879Z,818.63
2018-05-24T11:24:44.894Z,818.65
2018-05-24T11:25:44.910Z,818.61
2018-05-24T11:26:44.927Z,818.65
2018-05-24T11:27:44.943Z,818.57
2018-05-24T11:28:44.965Z,818.65
2018-05-24T11:29:44.976Z,818.63
2018-05-24T11:30:45.005Z,818.61
2018-05-24T11:31:45.021Z,818.63
2018-05-24T11:32:45.025Z,818.62
2018-05-24T11:33:45.040Z,818.68
2018-05-24T11:34:45.057Z,818.65
2018-05-24T11:35:45.074Z,818.65
2018-05-24T11:36:45.091Z,818.61
2018-05-24T11:37:45.107Z,818.65
2018-05-24T11:38:45.123Z,818.63
2018-05-24T11:39:45.140Z,818.63
2018-05-24T11:40:45.163Z,818.57
2018-05-24T11:41:45.173Z,818.59
2018-05-24T11:42:45.189Z,818.60
2018-05-24T11:43:45.205Z,818.65
2018-05-24T11:44:45.221Z,818.63
2018-05-24T11:45:45.238Z,818.64
2018-05-24T11:46:45.255Z,818.64
2018-05-24T11:47:45.272Z,818.67
2018-05-24T11:48:45.285Z,818.63
2018-05-24T11:49:45.301Z,818.65
2018-05-24T11:50:45.320Z,818.63
2018-05-24T11:51:45.335Z,818.63
2018-05-24T11:52:45.349Z,818.64
2018-05-24T11:53:45.368Z,818.64
2018-05-24T11:54:45.384Z,818.67
2018-05-24T11:55:45.399Z,818.64
2018-05-24T11:56:45.414Z,818.65
2018-05-24T11:57:45.430Z,818.67
2018-05-24T11:58:45.447Z,818.65
2018-05-24T11:59:45.465Z,818.67
2018-05-24T12:00:45.480Z,818.71
2018-05-24T12:01:45.613Z,818.69
2018-05-24T12:02:45.519Z,818.67
2018-05-24T12:03:45.528Z,818.66
2018-05-24T12:04:45.544Z,818.66
2018-05-24T12:05:45.562Z,818.68
2018-05-24T12:06:45.576Z,818.65
2018-05-24T12:07:45.594Z,818.68
2018-05-24T12:08:45.608Z,818.68
2018-05-24T12:09:45.702Z,818.70
2018-05-24T12:10:45.647Z,818.70
2018-05-24T12:11:45.661Z,818.70
2018-05-24T12:12:45.674Z,818.66
2018-05-24T12:13:45.692Z,818.65
2018-05-24T12:14:45.709Z,818.71
2018-05-24T12:15:45.732Z,818.64
2018-05-24T12:16:45.742Z,818.65
2018-05-24T12:17:45.760Z,818.67
2018-05-24T12:18:45.809Z,818.59
2018-05-24T12:19:45.794Z,818.59
2018-05-24T12:20:45.808Z,818.61
2018-05-24T12:21:45.826Z,818.69
2018-05-24T12:22:45.850Z,818.65
2018-05-24T12:23:45.889Z,818.65
2018-05-24T12:24:45.883Z,818.63
2018-05-24T12:25:45.897Z,818.67
2018-05-24T12:26:45.917Z,818.69
2018-05-24T12:27:45.931Z,818.68
2018-05-24T12:28:45.947Z,818.68